sensor_id;sensor_type;location;lat;lon;timestamp;P1;durP1;ratioP1;P2;durP2;ratioP2
8066;SDS011;4076;48.076;9.118;2022-10-17T00:01:04;3.80;;;2.20;;
8066;SDS011;4076;48.076;9.118;2022-10-17T00:03:30;3.60;;;1.70;;
8066;SDS011;4076;48.076;9.118;2022-10-17T00:05:56;2.20;;;1.53;;
8066;SDS011;4076;48.076;9.118;2022-10-17T00:08:22;3.97;;;2.40;;
8066;SDS011;4076;48.076;9.118;2022-10-17T00:10:55;3.27;;;2.00;;
8066;SDS011;4076;48.076;9.118;2022-10-17T00:13:25;2.80;;;1.97;;
8066;SDS011;4076;48.076;9.118;2022-10-17T00:15:51;4.03;;;2.00;;
8066;SDS011;4076;48.076;9.118;2022-10-17T00:18:17;3.13;;;2.27;;
8066;SDS011;4076;48.076;9.118;2022-10-17T00:20:42;3.03;;;2.03;;
8066;SDS011;4076;48.076;9.118;2022-10-17T00:23:08;3.47;;;2.37;;
8066;SDS011;4076;48.076;9.118;2022-10-17T00:25:34;2.70;;;1.93;;
8066;SDS011;4076;48.076;9.118;2022-10-17T00:28:00;2.40;;;1.63;;
8066;SDS011;4076;48.076;9.118;2022-10-17T00:30:26;2.83;;;1.90;;
8066;SDS011;4076;48.076;9.118;2022-10-17T00:32:52;2.50;;;2.10;;
8066;SDS011;4076;48.076;9.118;2022-10-17T00:35:17;3.20;;;1.90;;
8066;SDS011;4076;48.076;9.118;2022-10-17T00:37:43;2.43;;;1.80;;
8066;SDS011;4076;48.076;9.118;2022-10-17T00:40:09;2.70;;;1.70;;
8066;SDS011;4076;48.076;9.118;2022-10-17T00:42:35;3.33;;;1.60;;
8066;SDS011;4076;48.076;9.118;2022-10-17T00:45:34;4.93;;;2.57;;
8066;SDS011;4076;48.076;9.118;2022-10-17T00:47:55;2.70;;;1.77;;
8066;SDS011;4076;48.076;9.118;2022-10-17T00:50:29;3.80;;;2.10;;
8066;SDS011;4076;48.076;9.118;2022-10-17T00:52:56;6.90;;;1.83;;
8066;SDS011;4076;48.076;9.118;2022-10-17T00:55:26;3.50;;;2.20;;
8066;SDS011;4076;48.076;9.118;2022-10-17T00:57:55;5.20;;;2.37;;
8066;SDS011;4076;48.076;9.118;2022-10-17T01:00:23;3.50;;;1.77;;
8066;SDS011;4076;48.076;9.118;2022-10-17T01:02:49;2.77;;;2.10;;
8066;SDS011;4076;48.076;9.118;2022-10-17T01:05:15;3.50;;;1.90;;
8066;SDS011;4076;48.076;9.118;2022-10-17T01:07:42;2.53;;;2.10;;
8066;SDS011;4076;48.076;9.118;2022-10-17T01:10:09;3.67;;;2.17;;
8066;SDS011;4076;48.076;9.118;2022-10-17T01:16:05;2.73;;;1.97;;
8066;SDS011;4076;48.076;9.118;2022-10-17T01:19:17;2.40;;;1.80;;
8066;SDS011;4076;48.076;9.118;2022-10-17T01:21:22;3.40;;;2.40;;
8066;SDS011;4076;48.076;9.118;2022-10-17T01:34:58;3.03;;;2.03;;
8066;SDS011;4076;48.076;9.118;2022-10-17T01:37:54;2.20;;;1.77;;
8066;SDS011;4076;48.076;9.118;2022-10-17T01:40:27;4.00;;;2.40;;
8066;SDS011;4076;48.076;9.118;2022-10-17T01:43:17;2.70;;;2.07;;
8066;SDS011;4076;48.076;9.118;2022-10-17T01:45:49;2.80;;;1.70;;
8066;SDS011;4076;48.076;9.118;2022-10-17T01:48:22;2.80;;;2.00;;
8066;SDS011;4076;48.076;9.118;2022-10-17T01:51:04;3.77;;;2.20;;
8066;SDS011;4076;48.076;9.118;2022-10-17T01:54:03;4.03;;;2.47;;
8066;SDS011;4076;48.076;9.118;2022-10-17T01:56:39;3.10;;;2.00;;
8066;SDS011;4076;48.076;9.118;2022-10-17T01:59:09;3.27;;;2.03;;
8066;SDS011;4076;48.076;9.118;2022-10-17T02:01:38;4.67;;;2.00;;
8066;SDS011;4076;48.076;9.118;2022-10-17T02:04:06;4.23;;;2.20;;
8066;SDS011;4076;48.076;9.118;2022-10-17T02:06:34;2.70;;;1.90;;
8066;SDS011;4076;48.076;9.118;2022-10-17T02:09:00;3.33;;;2.00;;
8066;SDS011;4076;48.076;9.118;2022-10-17T02:11:39;4.10;;;2.23;;
8066;SDS011;4076;48.076;9.118;2022-10-17T02:14:21;3.83;;;2.23;;
8066;SDS011;4076;48.076;9.118;2022-10-17T02:17:18;6.57;;;2.50;;
8066;SDS011;4076;48.076;9.118;2022-10-17T02:20:09;3.73;;;2.13;;
8066;SDS011;4076;48.076;9.118;2022-10-17T02:25:41;2.63;;;1.90;;
8066;SDS011;4076;48.076;9.118;2022-10-17T02:28:29;2.77;;;1.53;;
8066;SDS011;4076;48.076;9.118;2022-10-17T02:31:15;2.37;;;1.30;;
8066;SDS011;4076;48.076;9.118;2022-10-17T02:33:57;2.20;;;1.50;;
8066;SDS011;4076;48.076;9.118;2022-10-17T02:36:29;3.20;;;1.70;;
8066;SDS011;4076;48.076;9.118;2022-10-17T02:38:59;2.67;;;1.70;;
8066;SDS011;4076;48.076;9.118;2022-10-17T02:41:27;2.43;;;1.80;;
8066;SDS011;4076;48.076;9.118;2022-10-17T02:43:55;2.43;;;1.73;;
8066;SDS011;4076;48.076;9.118;2022-10-17T02:46:22;2.40;;;1.57;;
8066;SDS011;4076;48.076;9.118;2022-10-17T02:48:52;2.17;;;1.47;;
8066;SDS011;4076;48.076;9.118;2022-10-17T02:51:28;2.43;;;1.50;;
8066;SDS011;4076;48.076;9.118;2022-10-17T02:54:01;2.53;;;1.50;;
8066;SDS011;4076;48.076;9.118;2022-10-17T02:57:29;2.63;;;1.90;;
8066;SDS011;4076;48.076;9.118;2022-10-17T02:59:38;2.70;;;1.67;;
8066;SDS011;4076;48.076;9.118;2022-10-17T03:02:05;2.30;;;1.70;;
8066;SDS011;4076;48.076;9.118;2022-10-17T03:04:31;2.40;;;1.40;;
8066;SDS011;4076;48.076;9.118;2022-10-17T03:06:58;2.00;;;1.20;;
8066;SDS011;4076;48.076;9.118;2022-10-17T03:09:24;2.10;;;1.60;;
8066;SDS011;4076;48.076;9.118;2022-10-17T03:11:49;2.87;;;1.57;;
8066;SDS011;4076;48.076;9.118;2022-10-17T03:14:15;2.17;;;1.23;;
8066;SDS011;4076;48.076;9.118;2022-10-17T03:16:40;5.60;;;1.53;;
8066;SDS011;4076;48.076;9.118;2022-10-17T03:19:06;2.10;;;1.40;;
8066;SDS011;4076;48.076;9.118;2022-10-17T03:21:32;2.87;;;2.10;;
8066;SDS011;4076;48.076;9.118;2022-10-17T03:23:57;2.73;;;1.60;;
8066;SDS011;4076;48.076;9.118;2022-10-17T03:26:23;4.17;;;1.90;;
8066;SDS011;4076;48.076;9.118;2022-10-17T03:28:48;1.90;;;1.50;;
8066;SDS011;4076;48.076;9.118;2022-10-17T03:31:15;2.67;;;1.67;;
8066;SDS011;4076;48.076;9.118;2022-10-17T03:33:41;2.77;;;1.60;;
8066;SDS011;4076;48.076;9.118;2022-10-17T03:36:08;2.20;;;1.43;;
8066;SDS011;4076;48.076;9.118;2022-10-17T03:38:35;2.17;;;1.40;;
8066;SDS011;4076;48.076;9.118;2022-10-17T03:41:01;2.30;;;1.53;;
8066;SDS011;4076;48.076;9.118;2022-10-17T03:43:28;3.30;;;1.70;;
8066;SDS011;4076;48.076;9.118;2022-10-17T03:45:55;2.50;;;1.70;;
8066;SDS011;4076;48.076;9.118;2022-10-17T03:48:21;3.47;;;1.70;;
8066;SDS011;4076;48.076;9.118;2022-10-17T03:50:47;2.03;;;1.50;;
8066;SDS011;4076;48.076;9.118;2022-10-17T03:53:13;2.53;;;1.63;;
8066;SDS011;4076;48.076;9.118;2022-10-17T03:55:38;2.57;;;1.40;;
8066;SDS011;4076;48.076;9.118;2022-10-17T03:58:04;2.47;;;1.60;;
8066;SDS011;4076;48.076;9.118;2022-10-17T04:00:29;2.80;;;1.60;;
8066;SDS011;4076;48.076;9.118;2022-10-17T04:02:56;2.00;;;1.40;;
8066;SDS011;4076;48.076;9.118;2022-10-17T04:05:22;1.70;;;1.30;;
8066;SDS011;4076;48.076;9.118;2022-10-17T04:07:48;2.87;;;1.60;;
8066;SDS011;4076;48.076;9.118;2022-10-17T04:10:13;2.30;;;1.50;;
8066;SDS011;4076;48.076;9.118;2022-10-17T04:12:39;2.10;;;1.30;;
8066;SDS011;4076;48.076;9.118;2022-10-17T04:15:05;2.30;;;1.60;;
8066;SDS011;4076;48.076;9.118;2022-10-17T04:17:31;2.77;;;1.80;;
8066;SDS011;4076;48.076;9.118;2022-10-17T04:19:57;2.17;;;1.57;;
8066;SDS011;4076;48.076;9.118;2022-10-17T04:22:22;2.17;;;1.30;;
8066;SDS011;4076;48.076;9.118;2022-10-17T04:24:48;2.10;;;1.30;;
8066;SDS011;4076;48.076;9.118;2022-10-17T04:27:13;2.80;;;2.00;;
8066;SDS011;4076;48.076;9.118;2022-10-17T04:29:39;2.50;;;1.97;;
8066;SDS011;4076;48.076;9.118;2022-10-17T04:32:05;2.03;;;1.50;;
8066;SDS011;4076;48.076;9.118;2022-10-17T04:34:31;2.33;;;1.60;;
8066;SDS011;4076;48.076;9.118;2022-10-17T04:36:56;3.20;;;1.50;;
8066;SDS011;4076;48.076;9.118;2022-10-17T04:39:22;3.70;;;1.70;;
8066;SDS011;4076;48.076;9.118;2022-10-17T04:41:47;2.53;;;1.40;;
8066;SDS011;4076;48.076;9.118;2022-10-17T04:44:13;2.50;;;1.60;;
8066;SDS011;4076;48.076;9.118;2022-10-17T04:46:38;2.13;;;1.27;;
8066;SDS011;4076;48.076;9.118;2022-10-17T04:49:04;2.90;;;1.60;;
8066;SDS011;4076;48.076;9.118;2022-10-17T04:51:30;3.27;;;1.60;;
8066;SDS011;4076;48.076;9.118;2022-10-17T04:53:55;2.57;;;1.50;;
8066;SDS011;4076;48.076;9.118;2022-10-17T04:56:22;3.47;;;1.83;;
8066;SDS011;4076;48.076;9.118;2022-10-17T04:58:48;2.23;;;1.77;;
8066;SDS011;4076;48.076;9.118;2022-10-17T05:01:15;2.00;;;1.50;;
8066;SDS011;4076;48.076;9.118;2022-10-17T05:03:42;2.90;;;1.80;;
8066;SDS011;4076;48.076;9.118;2022-10-17T05:06:09;2.40;;;1.50;;
8066;SDS011;4076;48.076;9.118;2022-10-17T05:08:36;2.50;;;1.40;;
8066;SDS011;4076;48.076;9.118;2022-10-17T05:11:02;3.37;;;2.30;;
8066;SDS011;4076;48.076;9.118;2022-10-17T05:13:29;3.63;;;2.10;;
8066;SDS011;4076;48.076;9.118;2022-10-17T05:15:59;4.33;;;1.90;;
8066;SDS011;4076;48.076;9.118;2022-10-17T05:18:26;3.33;;;2.50;;
8066;SDS011;4076;48.076;9.118;2022-10-17T05:20:52;2.47;;;1.53;;
8066;SDS011;4076;48.076;9.118;2022-10-17T05:23:18;3.50;;;1.67;;
8066;SDS011;4076;48.076;9.118;2022-10-17T05:25:43;2.60;;;1.20;;
8066;SDS011;4076;48.076;9.118;2022-10-17T05:28:09;1.90;;;1.40;;
8066;SDS011;4076;48.076;9.118;2022-10-17T05:30:34;3.40;;;1.90;;
8066;SDS011;4076;48.076;9.118;2022-10-17T05:33:00;4.20;;;1.80;;
8066;SDS011;4076;48.076;9.118;2022-10-17T05:35:26;3.07;;;2.17;;
8066;SDS011;4076;48.076;9.118;2022-10-17T05:37:52;3.03;;;1.80;;
8066;SDS011;4076;48.076;9.118;2022-10-17T05:40:18;2.33;;;1.87;;
8066;SDS011;4076;48.076;9.118;2022-10-17T05:42:47;2.80;;;2.00;;
8066;SDS011;4076;48.076;9.118;2022-10-17T05:45:13;1.80;;;1.40;;
8066;SDS011;4076;48.076;9.118;2022-10-17T05:47:39;2.67;;;1.53;;
8066;SDS011;4076;48.076;9.118;2022-10-17T05:50:05;1.80;;;1.00;;
8066;SDS011;4076;48.076;9.118;2022-10-17T05:52:31;2.43;;;1.60;;
8066;SDS011;4076;48.076;9.118;2022-10-17T05:54:57;2.97;;;2.10;;
8066;SDS011;4076;48.076;9.118;2022-10-17T05:57:26;2.40;;;1.40;;
8066;SDS011;4076;48.076;9.118;2022-10-17T05:59:51;2.10;;;1.40;;
8066;SDS011;4076;48.076;9.118;2022-10-17T06:02:17;1.87;;;1.30;;
8066;SDS011;4076;48.076;9.118;2022-10-17T06:04:43;3.37;;;2.10;;
8066;SDS011;4076;48.076;9.118;2022-10-17T06:07:10;2.97;;;2.13;;
8066;SDS011;4076;48.076;9.118;2022-10-17T06:09:36;3.20;;;1.87;;
8066;SDS011;4076;48.076;9.118;2022-10-17T06:12:02;2.00;;;1.50;;
8066;SDS011;4076;48.076;9.118;2022-10-17T06:14:28;2.93;;;1.60;;
8066;SDS011;4076;48.076;9.118;2022-10-17T06:16:54;2.37;;;1.77;;
8066;SDS011;4076;48.076;9.118;2022-10-17T06:19:20;2.33;;;1.67;;
8066;SDS011;4076;48.076;9.118;2022-10-17T06:21:46;2.53;;;1.60;;
8066;SDS011;4076;48.076;9.118;2022-10-17T06:24:11;5.00;;;2.30;;
8066;SDS011;4076;48.076;9.118;2022-10-17T06:26:37;2.80;;;1.60;;
8066;SDS011;4076;48.076;9.118;2022-10-17T06:29:03;2.20;;;1.30;;
8066;SDS011;4076;48.076;9.118;2022-10-17T06:31:28;2.67;;;1.80;;
8066;SDS011;4076;48.076;9.118;2022-10-17T06:33:54;2.40;;;1.70;;
8066;SDS011;4076;48.076;9.118;2022-10-17T06:36:20;2.40;;;1.30;;
8066;SDS011;4076;48.076;9.118;2022-10-17T06:38:45;2.50;;;1.30;;
8066;SDS011;4076;48.076;9.118;2022-10-17T06:41:14;3.13;;;2.30;;
8066;SDS011;4076;48.076;9.118;2022-10-17T06:43:43;2.50;;;1.57;;
8066;SDS011;4076;48.076;9.118;2022-10-17T06:46:10;1.70;;;1.20;;
8066;SDS011;4076;48.076;9.118;2022-10-17T06:48:37;1.90;;;1.17;;
8066;SDS011;4076;48.076;9.118;2022-10-17T06:51:03;1.80;;;1.10;;
8066;SDS011;4076;48.076;9.118;2022-10-17T06:53:30;2.17;;;1.53;;
8066;SDS011;4076;48.076;9.118;2022-10-17T06:55:57;2.17;;;1.50;;
8066;SDS011;4076;48.076;9.118;2022-10-17T06:58:30;2.97;;;1.80;;
8066;SDS011;4076;48.076;9.118;2022-10-17T07:00:58;8.97;;;1.67;;
8066;SDS011;4076;48.076;9.118;2022-10-17T07:03:28;2.30;;;1.67;;
8066;SDS011;4076;48.076;9.118;2022-10-17T07:05:54;1.93;;;1.37;;
8066;SDS011;4076;48.076;9.118;2022-10-17T07:08:20;5.23;;;1.30;;
8066;SDS011;4076;48.076;9.118;2022-10-17T07:10:46;3.93;;;1.87;;
8066;SDS011;4076;48.076;9.118;2022-10-17T07:13:12;1.80;;;1.20;;
8066;SDS011;4076;48.076;9.118;2022-10-17T07:15:39;2.80;;;1.60;;
8066;SDS011;4076;48.076;9.118;2022-10-17T07:18:05;1.73;;;1.33;;
8066;SDS011;4076;48.076;9.118;2022-10-17T07:20:31;2.50;;;1.20;;
8066;SDS011;4076;48.076;9.118;2022-10-17T07:22:56;2.90;;;1.50;;
8066;SDS011;4076;48.076;9.118;2022-10-17T07:25:22;5.30;;;1.40;;
8066;SDS011;4076;48.076;9.118;2022-10-17T07:27:49;4.30;;;1.67;;
8066;SDS011;4076;48.076;9.118;2022-10-17T07:30:15;1.93;;;1.20;;
8066;SDS011;4076;48.076;9.118;2022-10-17T07:32:41;2.20;;;1.47;;
8066;SDS011;4076;48.076;9.118;2022-10-17T07:35:07;2.33;;;1.63;;
8066;SDS011;4076;48.076;9.118;2022-10-17T07:37:34;2.00;;;1.53;;
8066;SDS011;4076;48.076;9.118;2022-10-17T07:40:00;3.10;;;1.70;;
8066;SDS011;4076;48.076;9.118;2022-10-17T07:42:26;10.73;;;1.97;;
8066;SDS011;4076;48.076;9.118;2022-10-17T07:44:52;5.30;;;2.43;;
8066;SDS011;4076;48.076;9.118;2022-10-17T07:47:18;2.83;;;1.30;;
8066;SDS011;4076;48.076;9.118;2022-10-17T07:49:44;2.10;;;1.93;;
8066;SDS011;4076;48.076;9.118;2022-10-17T07:52:13;10.23;;;5.77;;
8066;SDS011;4076;48.076;9.118;2022-10-17T07:54:40;2.10;;;1.70;;
8066;SDS011;4076;48.076;9.118;2022-10-17T07:57:06;2.30;;;1.83;;
8066;SDS011;4076;48.076;9.118;2022-10-17T07:59:32;2.70;;;1.63;;
8066;SDS011;4076;48.076;9.118;2022-10-17T08:01:58;2.20;;;1.60;;
8066;SDS011;4076;48.076;9.118;2022-10-17T08:04:24;1.70;;;1.37;;
8066;SDS011;4076;48.076;9.118;2022-10-17T08:06:51;4.50;;;1.70;;
8066;SDS011;4076;48.076;9.118;2022-10-17T08:09:16;5.57;;;2.20;;
8066;SDS011;4076;48.076;9.118;2022-10-17T08:11:42;3.90;;;3.60;;
8066;SDS011;4076;48.076;9.118;2022-10-17T08:14:08;3.30;;;2.10;;
8066;SDS011;4076;48.076;9.118;2022-10-17T08:16:34;3.57;;;2.43;;
8066;SDS011;4076;48.076;9.118;2022-10-17T08:19:00;3.43;;;2.07;;
8066;SDS011;4076;48.076;9.118;2022-10-17T08:21:26;2.30;;;1.90;;
8066;SDS011;4076;48.076;9.118;2022-10-17T08:23:52;2.50;;;1.70;;
8066;SDS011;4076;48.076;9.118;2022-10-17T08:26:17;2.87;;;2.23;;
8066;SDS011;4076;48.076;9.118;2022-10-17T08:28:44;3.10;;;2.80;;
8066;SDS011;4076;48.076;9.118;2022-10-17T08:31:11;2.80;;;1.40;;
8066;SDS011;4076;48.076;9.118;2022-10-17T08:33:38;4.90;;;2.90;;
8066;SDS011;4076;48.076;9.118;2022-10-17T08:36:04;4.17;;;2.67;;
8066;SDS011;4076;48.076;9.118;2022-10-17T08:38:30;3.80;;;1.80;;
8066;SDS011;4076;48.076;9.118;2022-10-17T08:40:59;5.73;;;4.77;;
8066;SDS011;4076;48.076;9.118;2022-10-17T08:43:36;2.67;;;2.27;;
8066;SDS011;4076;48.076;9.118;2022-10-17T08:46:31;2.23;;;2.03;;
8066;SDS011;4076;48.076;9.118;2022-10-17T08:49:01;2.50;;;2.17;;
8066;SDS011;4076;48.076;9.118;2022-10-17T08:51:31;2.93;;;2.50;;
8066;SDS011;4076;48.076;9.118;2022-10-17T08:56:48;2.20;;;2.00;;
8066;SDS011;4076;48.076;9.118;2022-10-17T08:59:20;2.30;;;2.10;;
8066;SDS011;4076;48.076;9.118;2022-10-17T09:21:54;9.13;;;6.07;;
8066;SDS011;4076;48.076;9.118;2022-10-17T09:24:36;2.40;;;2.20;;
8066;SDS011;4076;48.076;9.118;2022-10-17T09:27:24;3.10;;;2.90;;
8066;SDS011;4076;48.076;9.118;2022-10-17T09:30:01;3.00;;;2.23;;
8066;SDS011;4076;48.076;9.118;2022-10-17T09:32:46;2.47;;;2.27;;
8066;SDS011;4076;48.076;9.118;2022-10-17T09:35:15;2.60;;;2.40;;
8066;SDS011;4076;48.076;9.118;2022-10-17T09:37:41;2.93;;;2.63;;
8066;SDS011;4076;48.076;9.118;2022-10-17T09:40:11;2.57;;;2.37;;
8066;SDS011;4076;48.076;9.118;2022-10-17T09:42:45;3.00;;;2.70;;
8066;SDS011;4076;48.076;9.118;2022-10-17T09:47:59;2.53;;;2.27;;
8066;SDS011;4076;48.076;9.118;2022-10-17T09:50:34;2.87;;;2.03;;
8066;SDS011;4076;48.076;9.118;2022-10-17T09:53:07;3.07;;;2.77;;
8066;SDS011;4076;48.076;9.118;2022-10-17T09:58:11;4.00;;;3.10;;
8066;SDS011;4076;48.076;9.118;2022-10-17T10:00:38;4.67;;;4.27;;
8066;SDS011;4076;48.076;9.118;2022-10-17T10:05:42;6.80;;;4.40;;
8066;SDS011;4076;48.076;9.118;2022-10-17T10:08:29;3.73;;;2.70;;
8066;SDS011;4076;48.076;9.118;2022-10-17T10:10:59;9.07;;;6.47;;
8066;SDS011;4076;48.076;9.118;2022-10-17T10:13:28;7.90;;;3.50;;
8066;SDS011;4076;48.076;9.118;2022-10-17T10:15:55;2.87;;;2.60;;
8066;SDS011;4076;48.076;9.118;2022-10-17T10:18:48;4.13;;;1.87;;
8066;SDS011;4076;48.076;9.118;2022-10-17T10:21:22;3.43;;;2.30;;
8066;SDS011;4076;48.076;9.118;2022-10-17T10:26:39;3.37;;;2.20;;
8066;SDS011;4076;48.076;9.118;2022-10-17T10:29:23;6.53;;;3.07;;
8066;SDS011;4076;48.076;9.118;2022-10-17T10:32:06;6.37;;;3.87;;
8066;SDS011;4076;48.076;9.118;2022-10-17T10:34:34;4.60;;;2.20;;
8066;SDS011;4076;48.076;9.118;2022-10-17T10:37:02;2.87;;;2.07;;
8066;SDS011;4076;48.076;9.118;2022-10-17T10:39:41;5.20;;;2.83;;
8066;SDS011;4076;48.076;9.118;2022-10-17T10:42:31;4.07;;;2.37;;
8066;SDS011;4076;48.076;9.118;2022-10-17T10:45:01;5.23;;;2.50;;
8066;SDS011;4076;48.076;9.118;2022-10-17T10:47:39;3.07;;;2.23;;
8066;SDS011;4076;48.076;9.118;2022-10-17T10:55:46;3.00;;;2.30;;
8066;SDS011;4076;48.076;9.118;2022-10-17T11:00:48;4.10;;;2.67;;
8066;SDS011;4076;48.076;9.118;2022-10-17T11:05:45;3.80;;;2.83;;
8066;SDS011;4076;48.076;9.118;2022-10-17T11:16:35;6.97;;;5.53;;
8066;SDS011;4076;48.076;9.118;2022-10-17T11:22:01;2.87;;;2.33;;
8066;SDS011;4076;48.076;9.118;2022-10-17T11:24:51;2.80;;;2.20;;
8066;SDS011;4076;48.076;9.118;2022-10-17T11:27:21;2.60;;;1.80;;
8066;SDS011;4076;48.076;9.118;2022-10-17T11:29:47;5.23;;;2.27;;
8066;SDS011;4076;48.076;9.118;2022-10-17T11:32:21;3.00;;;2.50;;
8066;SDS011;4076;48.076;9.118;2022-10-17T11:34:54;3.57;;;2.10;;
8066;SDS011;4076;48.076;9.118;2022-10-17T11:37:43;4.47;;;3.13;;
8066;SDS011;4076;48.076;9.118;2022-10-17T11:40:16;3.57;;;2.97;;
8066;SDS011;4076;48.076;9.118;2022-10-17T11:45:47;3.73;;;2.40;;
8066;SDS011;4076;48.076;9.118;2022-10-17T11:48:26;4.53;;;2.27;;
8066;SDS011;4076;48.076;9.118;2022-10-17T11:51:07;3.40;;;2.97;;
8066;SDS011;4076;48.076;9.118;2022-10-17T11:56:11;2.87;;;2.37;;
8066;SDS011;4076;48.076;9.118;2022-10-17T11:58:58;2.87;;;2.53;;
8066;SDS011;4076;48.076;9.118;2022-10-17T12:01:52;3.43;;;2.93;;
8066;SDS011;4076;48.076;9.118;2022-10-17T12:07:09;5.33;;;2.20;;
8066;SDS011;4076;48.076;9.118;2022-10-17T12:09:51;3.90;;;2.57;;
8066;SDS011;4076;48.076;9.118;2022-10-17T12:12:25;4.97;;;2.33;;
8066;SDS011;4076;48.076;9.118;2022-10-17T12:14:53;2.87;;;2.03;;
8066;SDS011;4076;48.076;9.118;2022-10-17T12:17:45;3.77;;;2.70;;
8066;SDS011;4076;48.076;9.118;2022-10-17T12:22:52;5.80;;;2.43;;
8066;SDS011;4076;48.076;9.118;2022-10-17T12:25:37;5.50;;;2.60;;
8066;SDS011;4076;48.076;9.118;2022-10-17T12:46:43;3.50;;;2.60;;
8066;SDS011;4076;48.076;9.118;2022-10-17T12:57:26;6.10;;;2.70;;
8066;SDS011;4076;48.076;9.118;2022-10-17T13:00:01;3.10;;;2.30;;
8066;SDS011;4076;48.076;9.118;2022-10-17T13:02:51;3.77;;;2.20;;
8066;SDS011;4076;48.076;9.118;2022-10-17T13:05:26;4.03;;;2.50;;
8066;SDS011;4076;48.076;9.118;2022-10-17T13:07:55;5.30;;;2.93;;
8066;SDS011;4076;48.076;9.118;2022-10-17T13:10:24;3.60;;;2.50;;
8066;SDS011;4076;48.076;9.118;2022-10-17T13:13:03;3.60;;;1.70;;
8066;SDS011;4076;48.076;9.118;2022-10-17T13:15:38;3.37;;;2.10;;
8066;SDS011;4076;48.076;9.118;2022-10-17T13:18:03;3.20;;;2.30;;
8066;SDS011;4076;48.076;9.118;2022-10-17T13:20:30;4.63;;;4.13;;
8066;SDS011;4076;48.076;9.118;2022-10-17T13:22:56;5.20;;;2.77;;
8066;SDS011;4076;48.076;9.118;2022-10-17T13:25:22;4.07;;;2.20;;
8066;SDS011;4076;48.076;9.118;2022-10-17T13:27:49;3.53;;;2.87;;
8066;SDS011;4076;48.076;9.118;2022-10-17T13:30:31;3.97;;;2.20;;
8066;SDS011;4076;48.076;9.118;2022-10-17T13:32:59;5.53;;;2.47;;
8066;SDS011;4076;48.076;9.118;2022-10-17T13:35:33;2.90;;;2.23;;
8066;SDS011;4076;48.076;9.118;2022-10-17T13:38:02;4.40;;;2.70;;
8066;SDS011;4076;48.076;9.118;2022-10-17T13:40:31;24.37;;;3.50;;
8066;SDS011;4076;48.076;9.118;2022-10-17T13:43:04;3.27;;;2.50;;
8066;SDS011;4076;48.076;9.118;2022-10-17T13:45:43;4.90;;;2.30;;
8066;SDS011;4076;48.076;9.118;2022-10-17T13:48:21;3.63;;;2.50;;
8066;SDS011;4076;48.076;9.118;2022-10-17T13:50:49;3.97;;;2.60;;
8066;SDS011;4076;48.076;9.118;2022-10-17T13:56:24;4.97;;;3.10;;
8066;SDS011;4076;48.076;9.118;2022-10-17T13:58:58;3.33;;;2.53;;
8066;SDS011;4076;48.076;9.118;2022-10-17T14:01:27;3.47;;;2.20;;
8066;SDS011;4076;48.076;9.118;2022-10-17T14:03:54;4.47;;;2.40;;
8066;SDS011;4076;48.076;9.118;2022-10-17T14:06:23;3.70;;;2.30;;
8066;SDS011;4076;48.076;9.118;2022-10-17T14:08:51;4.43;;;3.10;;
8066;SDS011;4076;48.076;9.118;2022-10-17T14:11:29;3.90;;;2.47;;
8066;SDS011;4076;48.076;9.118;2022-10-17T14:13:58;3.90;;;2.90;;
8066;SDS011;4076;48.076;9.118;2022-10-17T14:16:25;3.60;;;2.37;;
8066;SDS011;4076;48.076;9.118;2022-10-17T14:18:57;5.40;;;2.50;;
8066;SDS011;4076;48.076;9.118;2022-10-17T14:21:25;3.57;;;2.23;;
8066;SDS011;4076;48.076;9.118;2022-10-17T14:26:45;3.40;;;2.50;;
8066;SDS011;4076;48.076;9.118;2022-10-17T14:31:49;3.57;;;2.20;;
8066;SDS011;4076;48.076;9.118;2022-10-17T14:34:22;3.30;;;2.33;;
8066;SDS011;4076;48.076;9.118;2022-10-17T14:36:52;5.40;;;3.53;;
8066;SDS011;4076;48.076;9.118;2022-10-17T14:39:19;2.73;;;1.93;;
8066;SDS011;4076;48.076;9.118;2022-10-17T14:41:47;4.07;;;2.53;;
8066;SDS011;4076;48.076;9.118;2022-10-17T14:44:28;4.20;;;2.70;;
8066;SDS011;4076;48.076;9.118;2022-10-17T14:46:58;4.13;;;2.00;;
8066;SDS011;4076;48.076;9.118;2022-10-17T14:49:33;5.00;;;4.13;;
8066;SDS011;4076;48.076;9.118;2022-10-17T14:54:41;3.57;;;1.70;;
8066;SDS011;4076;48.076;9.118;2022-10-17T14:59:57;4.33;;;2.47;;
8066;SDS011;4076;48.076;9.118;2022-10-17T15:02:28;3.50;;;2.30;;
8066;SDS011;4076;48.076;9.118;2022-10-17T15:04:54;2.90;;;1.70;;
8066;SDS011;4076;48.076;9.118;2022-10-17T15:07:20;3.20;;;2.00;;
8066;SDS011;4076;48.076;9.118;2022-10-17T15:09:46;4.57;;;2.30;;
8066;SDS011;4076;48.076;9.118;2022-10-17T15:12:14;7.73;;;3.73;;
8066;SDS011;4076;48.076;9.118;2022-10-17T15:14:41;6.27;;;3.50;;
8066;SDS011;4076;48.076;9.118;2022-10-17T15:17:12;5.50;;;2.70;;
8066;SDS011;4076;48.076;9.118;2022-10-17T15:19:39;6.47;;;3.93;;
8066;SDS011;4076;48.076;9.118;2022-10-17T15:22:05;5.87;;;2.93;;
8066;SDS011;4076;48.076;9.118;2022-10-17T15:24:31;5.80;;;2.87;;
8066;SDS011;4076;48.076;9.118;2022-10-17T15:26:56;5.00;;;3.50;;
8066;SDS011;4076;48.076;9.118;2022-10-17T15:29:22;6.10;;;2.80;;
8066;SDS011;4076;48.076;9.118;2022-10-17T15:31:47;6.00;;;3.03;;
8066;SDS011;4076;48.076;9.118;2022-10-17T15:34:13;4.60;;;2.53;;
8066;SDS011;4076;48.076;9.118;2022-10-17T15:36:39;6.27;;;3.47;;
8066;SDS011;4076;48.076;9.118;2022-10-17T15:39:06;17.03;;;3.27;;
8066;SDS011;4076;48.076;9.118;2022-10-17T15:41:32;9.13;;;4.70;;
8066;SDS011;4076;48.076;9.118;2022-10-17T15:43:57;6.53;;;3.60;;
8066;SDS011;4076;48.076;9.118;2022-10-17T15:46:25;6.40;;;3.13;;
8066;SDS011;4076;48.076;9.118;2022-10-17T15:48:52;6.30;;;3.00;;
8066;SDS011;4076;48.076;9.118;2022-10-17T15:51:19;6.03;;;3.30;;
8066;SDS011;4076;48.076;9.118;2022-10-17T15:53:45;5.07;;;3.33;;
8066;SDS011;4076;48.076;9.118;2022-10-17T15:56:19;7.00;;;3.83;;
8066;SDS011;4076;48.076;9.118;2022-10-17T15:58:47;5.07;;;2.97;;
8066;SDS011;4076;48.076;9.118;2022-10-17T16:01:21;4.60;;;2.90;;
8066;SDS011;4076;48.076;9.118;2022-10-17T16:03:48;7.40;;;3.43;;
8066;SDS011;4076;48.076;9.118;2022-10-17T16:06:15;23.10;;;4.13;;
8066;SDS011;4076;48.076;9.118;2022-10-17T16:08:42;5.73;;;3.23;;
8066;SDS011;4076;48.076;9.118;2022-10-17T16:11:10;6.17;;;3.00;;
8066;SDS011;4076;48.076;9.118;2022-10-17T16:13:49;5.87;;;3.63;;
8066;SDS011;4076;48.076;9.118;2022-10-17T16:16:16;5.13;;;2.77;;
8066;SDS011;4076;48.076;9.118;2022-10-17T16:18:42;4.57;;;2.73;;
8066;SDS011;4076;48.076;9.118;2022-10-17T16:21:10;8.50;;;4.40;;
8066;SDS011;4076;48.076;9.118;2022-10-17T16:23:39;8.37;;;3.70;;
8066;SDS011;4076;48.076;9.118;2022-10-17T16:26:06;5.00;;;3.27;;
8066;SDS011;4076;48.076;9.118;2022-10-17T16:28:32;5.27;;;3.67;;
8066;SDS011;4076;48.076;9.118;2022-10-17T16:30:58;19.03;;;5.40;;
8066;SDS011;4076;48.076;9.118;2022-10-17T16:33:23;8.93;;;5.80;;
8066;SDS011;4076;48.076;9.118;2022-10-17T16:35:49;14.70;;;5.93;;
8066;SDS011;4076;48.076;9.118;2022-10-17T16:38:15;23.97;;;9.37;;
8066;SDS011;4076;48.076;9.118;2022-10-17T16:40:41;8.80;;;5.37;;
8066;SDS011;4076;48.076;9.118;2022-10-17T16:43:09;13.17;;;6.60;;
8066;SDS011;4076;48.076;9.118;2022-10-17T16:45:36;9.13;;;4.40;;
8066;SDS011;4076;48.076;9.118;2022-10-17T16:48:01;6.70;;;3.77;;
8066;SDS011;4076;48.076;9.118;2022-10-17T16:50:27;5.23;;;3.60;;
8066;SDS011;4076;48.076;9.118;2022-10-17T16:52:55;8.73;;;2.77;;
8066;SDS011;4076;48.076;9.118;2022-10-17T16:55:20;6.20;;;3.80;;
8066;SDS011;4076;48.076;9.118;2022-10-17T16:57:46;8.63;;;3.50;;
8066;SDS011;4076;48.076;9.118;2022-10-17T17:00:12;4.70;;;2.90;;
8066;SDS011;4076;48.076;9.118;2022-10-17T17:02:38;4.20;;;2.50;;
8066;SDS011;4076;48.076;9.118;2022-10-17T17:05:04;4.50;;;2.70;;
8066;SDS011;4076;48.076;9.118;2022-10-17T17:07:30;4.40;;;2.30;;
8066;SDS011;4076;48.076;9.118;2022-10-17T17:09:57;6.77;;;4.47;;
8066;SDS011;4076;48.076;9.118;2022-10-17T17:12:22;7.43;;;4.57;;
8066;SDS011;4076;48.076;9.118;2022-10-17T17:14:48;11.10;;;5.90;;
8066;SDS011;4076;48.076;9.118;2022-10-17T17:17:13;19.33;;;14.53;;
8066;SDS011;4076;48.076;9.118;2022-10-17T17:19:39;51.40;;;37.20;;
8066;SDS011;4076;48.076;9.118;2022-10-17T17:22:04;22.20;;;17.60;;
8066;SDS011;4076;48.076;9.118;2022-10-17T17:24:30;7.33;;;4.70;;
8066;SDS011;4076;48.076;9.118;2022-10-17T17:26:56;5.10;;;3.50;;
8066;SDS011;4076;48.076;9.118;2022-10-17T17:29:22;6.03;;;2.93;;
8066;SDS011;4076;48.076;9.118;2022-10-17T17:31:48;8.83;;;4.33;;
8066;SDS011;4076;48.076;9.118;2022-10-17T17:34:14;6.40;;;4.20;;